sensor_id;sensor_type;location;lat;lon;timestamp;pressure;altitude;pressure_sealevel;temperature;humidity
10658;BME280;5377;43.276;26.930;2022-12-11T00:08:10;97430.25;;;15.96;100.00
10658;BME280;5377;43.276;26.930;2022-12-11T00:24:17;97439.47;;;16.39;100.00
10658;BME280;5377;43.276;26.930;2022-12-11T00:51:08;97357.78;;;16.47;100.00
10658;BME280;5377;43.276;26.930;2022-12-11T00:53:34;97349.91;;;16.50;100.00
10658;BME280;5377;43.276;26.930;2022-12-11T00:56:08;97335.06;;;16.48;100.00
10658;BME280;5377;43.276;26.930;2022-12-11T00:58:35;97339.34;;;16.54;100.00
10658;BME280;5377;43.276;26.930;2022-12-11T01:01:05;97334.28;;;16.47;100.00
10658;BME280;5377;43.276;26.930;2022-12-11T01:03:32;97371.28;;;16.47;100.00
10658;BME280;5377;43.276;26.930;2022-12-11T01:06:22;97342.91;;;16.49;100.00
10658;BME280;5377;43.276;26.930;2022-12-11T03:17:13;97110.66;;;17.01;100.00
10658;BME280;5377;43.276;26.930;2022-12-11T04:03:10;97032.88;;;17.25;100.00
10658;BME280;5377;43.276;26.930;2022-12-11T04:09:38;97053.22;;;17.23;100.00
10658;BME280;5377;43.276;26.930;2022-12-11T04:12:05;97047.00;;;17.22;100.00
10658;BME280;5377;43.276;26.930;2022-12-11T04:14:32;97033.97;;;17.24;100.00
10658;BME280;5377;43.276;26.930;2022-12-11T04:17:19;97023.97;;;17.25;100.00
10658;BME280;5377;43.276;26.930;2022-12-11T04:20:31;97047.91;;;17.31;100.00
10658;BME280;5377;43.276;26.930;2022-12-11T04:23:17;97009.25;;;16.98;100.00
10658;BME280;5377;43.276;26.930;2022-12-11T04:26:37;97063.00;;;17.37;100.00
10658;BME280;5377;43.276;26.930;2022-12-11T04:36:27;97092.91;;;17.27;100.00
10658;BME280;5377;43.276;26.930;2022-12-11T04:45:41;97113.81;;;17.40;100.00
10658;BME280;5377;43.276;26.930;2022-12-11T04:58:08;97085.75;;;17.36;100.00
10658;BME280;5377;43.276;26.930;2022-12-11T05:17:23;97105.59;;;17.45;100.00
10658;BME280;5377;43.276;26.930;2022-12-11T05:19:50;97111.69;;;17.37;100.00
10658;BME280;5377;43.276;26.930;2022-12-11T05:22:18;97099.56;;;17.35;100.00
10658;BME280;5377;43.276;26.930;2022-12-11T05:24:44;97124.19;;;17.33;100.00
10658;BME280;5377;43.276;26.930;2022-12-11T06:20:15;97115.72;;;17.21;100.00
10658;BME280;5377;43.276;26.930;2022-12-11T06:22:42;97103.81;;;17.22;100.00
10658;BME280;5377;43.276;26.930;2022-12-11T06:31:57;97116.16;;;17.28;100.00
10658;BME280;5377;43.276;26.930;2022-12-11T06:34:23;97088.59;;;17.26;100.00
10658;BME280;5377;43.276;26.930;2022-12-11T06:36:52;97100.19;;;17.45;100.00
10658;BME280;5377;43.276;26.930;2022-12-11T06:39:18;97116.84;;;17.53;100.00
10658;BME280;5377;43.276;26.930;2022-12-11T06:41:45;97081.75;;;17.48;100.00
10658;BME280;5377;43.276;26.930;2022-12-11T06:44:12;97094.06;;;17.40;100.00
10658;BME280;5377;43.276;26.930;2022-12-11T06:46:39;97068.13;;;17.39;100.00
10658;BME280;5377;43.276;26.930;2022-12-11T06:49:06;97071.41;;;17.36;100.00
10658;BME280;5377;43.276;26.930;2022-12-11T06:58:22;97103.94;;;17.31;100.00
10658;BME280;5377;43.276;26.930;2022-12-11T07:08:13;97077.34;;;17.19;100.00
10658;BME280;5377;43.276;26.930;2022-12-11T07:10:40;97091.91;;;17.23;100.00
10658;BME280;5377;43.276;26.930;2022-12-11T07:13:07;97094.09;;;17.21;100.00
10658;BME280;5377;43.276;26.930;2022-12-11T07:19:04;97122.75;;;17.22;100.00
10658;BME280;5377;43.276;26.930;2022-12-11T07:21:31;97059.78;;;17.03;100.00
10658;BME280;5377;43.276;26.930;2022-12-11T07:23:58;97118.53;;;17.16;100.00
10658;BME280;5377;43.276;26.930;2022-12-11T07:26:25;97116.50;;;17.08;100.00
10658;BME280;5377;43.276;26.930;2022-12-11T07:28:52;97113.13;;;17.16;100.00
10658;BME280;5377;43.276;26.930;2022-12-11T07:31:22;97113.41;;;17.14;100.00
10658;BME280;5377;43.276;26.930;2022-12-11T07:33:52;97146.88;;;17.19;100.00
10658;BME280;5377;43.276;26.930;2022-12-11T07:36:21;97135.84;;;17.15;100.00
10658;BME280;5377;43.276;26.930;2022-12-11T07:38:49;97125.47;;;17.22;100.00
10658;BME280;5377;43.276;26.930;2022-12-11T07:41:18;97107.00;;;17.43;100.00
10658;BME280;5377;43.276;26.930;2022-12-11T07:43:45;97112.25;;;17.34;100.00
10658;BME280;5377;43.276;26.930;2022-12-11T07:46:13;97116.75;;;17.25;100.00
10658;BME280;5377;43.276;26.930;2022-12-11T07:48:42;97153.44;;;17.31;100.00
10658;BME280;5377;43.276;26.930;2022-12-11T07:51:11;97181.97;;;17.42;100.00
10658;BME280;5377;43.276;26.930;2022-12-11T07:53:40;97184.75;;;17.37;100.00
10658;BME280;5377;43.276;26.930;2022-12-11T07:56:23;97182.56;;;17.39;100.00
10658;BME280;5377;43.276;26.930;2022-12-11T07:58:50;97169.75;;;17.45;100.00
10658;BME280;5377;43.276;26.930;2022-12-11T08:01:19;97176.19;;;17.49;100.00
10658;BME280;5377;43.276;26.930;2022-12-11T08:03:46;97102.97;;;17.08;100.00
10658;BME280;5377;43.276;26.930;2022-12-11T08:06:13;97192.72;;;17.48;100.00
10658;BME280;5377;43.276;26.930;2022-12-11T08:08:41;97194.03;;;17.50;100.00
10658;BME280;5377;43.276;26.930;2022-12-11T08:11:10;97199.66;;;17.54;100.00
10658;BME280;5377;43.276;26.930;2022-12-11T08:13:37;97178.84;;;17.87;100.00
10658;BME280;5377;43.276;26.930;2022-12-11T08:16:05;97161.34;;;18.12;100.00
10658;BME280;5377;43.276;26.930;2022-12-11T08:18:34;97159.84;;;18.60;100.00
10658;BME280;5377;43.276;26.930;2022-12-11T08:21:04;97151.25;;;19.08;100.00
10658;BME280;5377;43.276;26.930;2022-12-11T08:23:31;97144.25;;;19.52;100.00
10658;BME280;5377;43.276;26.930;2022-12-11T08:26:00;97138.75;;;19.43;100.00
10658;BME280;5377;43.276;26.930;2022-12-11T08:28:27;97136.47;;;19.00;100.00
10658;BME280;5377;43.276;26.930;2022-12-11T08:30:55;97126.31;;;18.70;100.00
10658;BME280;5377;43.276;26.930;2022-12-11T08:33:21;97141.78;;;18.42;100.00
10658;BME280;5377;43.276;26.930;2022-12-11T08:35:48;97146.19;;;18.38;100.00
10658;BME280;5377;43.276;26.930;2022-12-11T08:38:15;97148.09;;;18.79;100.00
10658;BME280;5377;43.276;26.930;2022-12-11T08:40:42;97164.91;;;19.03;100.00
10658;BME280;5377;43.276;26.930;2022-12-11T08:43:10;97154.03;;;19.17;100.00
10658;BME280;5377;43.276;26.930;2022-12-11T08:45:37;97152.53;;;19.47;100.00
10658;BME280;5377;43.276;26.930;2022-12-11T08:48:05;97137.03;;;19.70;100.00
10658;BME280;5377;43.276;26.930;2022-12-11T08:50:32;97140.50;;;20.15;100.00
10658;BME280;5377;43.276;26.930;2022-12-11T08:52:58;97141.94;;;20.52;96.73
10658;BME280;5377;43.276;26.930;2022-12-11T08:55:25;97147.72;;;20.68;94.34
10658;BME280;5377;43.276;26.930;2022-12-11T08:57:52;97151.84;;;20.48;94.19
10658;BME280;5377;43.276;26.930;2022-12-11T09:00:21;97130.69;;;20.45;93.87
10658;BME280;5377;43.276;26.930;2022-12-11T09:02:48;97134.69;;;20.08;97.06
10658;BME280;5377;43.276;26.930;2022-12-11T09:05:15;97116.88;;;19.93;98.92
10658;BME280;5377;43.276;26.930;2022-12-11T09:07:42;97115.47;;;19.96;98.66
10658;BME280;5377;43.276;26.930;2022-12-11T09:10:09;97123.00;;;19.76;98.15
10658;BME280;5377;43.276;26.930;2022-12-11T09:12:36;97132.41;;;19.70;99.60
10658;BME280;5377;43.276;26.930;2022-12-11T09:15:04;97123.22;;;19.80;98.55
10658;BME280;5377;43.276;26.930;2022-12-11T09:17:33;97099.28;;;19.59;98.63
10658;BME280;5377;43.276;26.930;2022-12-11T09:20:00;97105.91;;;19.76;98.79
10658;BME280;5377;43.276;26.930;2022-12-11T09:22:27;97091.50;;;19.98;97.56
10658;BME280;5377;43.276;26.930;2022-12-11T09:24:53;97080.19;;;20.52;93.00
10658;BME280;5377;43.276;26.930;2022-12-11T09:27:20;97086.94;;;20.81;88.80
10658;BME280;5377;43.276;26.930;2022-12-11T09:29:48;97062.47;;;20.98;86.76
10658;BME280;5377;43.276;26.930;2022-12-11T09:32:15;97079.94;;;21.32;84.20
10658;BME280;5377;43.276;26.930;2022-12-11T09:34:44;97047.19;;;21.58;82.59
10658;BME280;5377;43.276;26.930;2022-12-11T09:37:10;97035.56;;;21.87;80.31
10658;BME280;5377;43.276;26.930;2022-12-11T09:39:37;97058.72;;;21.63;80.08
10658;BME280;5377;43.276;26.930;2022-12-11T09:42:08;97070.72;;;21.71;79.98
10658;BME280;5377;43.276;26.930;2022-12-11T09:44:40;97080.53;;;21.55;79.47
10658;BME280;5377;43.276;26.930;2022-12-11T09:47:16;97096.56;;;21.56;80.62
10658;BME280;5377;43.276;26.930;2022-12-11T09:49:48;97090.56;;;21.80;78.86
10658;BME280;5377;43.276;26.930;2022-12-11T09:52:17;97075.91;;;22.02;76.83
10658;BME280;5377;43.276;26.930;2022-12-11T09:54:49;97051.00;;;22.21;75.14
10658;BME280;5377;43.276;26.930;2022-12-11T09:57:26;97056.41;;;22.50;74.83
10658;BME280;5377;43.276;26.930;2022-12-11T10:00:23;97051.03;;;22.92;71.10
10658;BME280;5377;43.276;26.930;2022-12-11T10:05:52;97065.38;;;23.22;67.14
10658;BME280;5377;43.276;26.930;2022-12-11T10:08:26;97061.13;;;23.12;67.77
10658;BME280;5377;43.276;26.930;2022-12-11T10:11:04;97072.59;;;23.06;69.34
10658;BME280;5377;43.276;26.930;2022-12-11T10:13:40;97067.13;;;23.06;68.45
10658;BME280;5377;43.276;26.930;2022-12-11T10:16:17;97068.31;;;22.46;69.92
10658;BME280;5377;43.276;26.930;2022-12-11T10:18:47;97068.00;;;21.62;73.75
10658;BME280;5377;43.276;26.930;2022-12-11T10:21:17;97080.06;;;21.18;76.70
10658;BME280;5377;43.276;26.930;2022-12-11T10:23:49;97074.78;;;20.87;79.24
10658;BME280;5377;43.276;26.930;2022-12-11T10:26:20;97075.09;;;20.77;80.15
10658;BME280;5377;43.276;26.930;2022-12-11T10:28:48;97069.03;;;20.97;79.10
10658;BME280;5377;43.276;26.930;2022-12-11T10:31:16;97065.81;;;20.95;78.17
10658;BME280;5377;43.276;26.930;2022-12-11T10:33:53;97051.41;;;20.69;78.54
10658;BME280;5377;43.276;26.930;2022-12-11T10:36:26;97039.25;;;20.58;79.34
10658;BME280;5377;43.276;26.930;2022-12-11T10:38:53;97048.63;;;20.43;82.08
10658;BME280;5377;43.276;26.930;2022-12-11T10:41:23;97055.16;;;20.33;82.97
10658;BME280;5377;43.276;26.930;2022-12-11T10:43:52;97058.97;;;20.23;83.86
10658;BME280;5377;43.276;26.930;2022-12-11T10:46:21;97051.41;;;20.12;83.80
10658;BME280;5377;43.276;26.930;2022-12-11T10:48:49;97046.28;;;20.10;83.30
10658;BME280;5377;43.276;26.930;2022-12-11T10:51:18;97054.00;;;19.77;84.42
10658;BME280;5377;43.276;26.930;2022-12-11T10:53:50;97045.31;;;19.67;85.94
10658;BME280;5377;43.276;26.930;2022-12-11T10:56:24;97044.97;;;19.59;87.67
10658;BME280;5377;43.276;26.930;2022-12-11T10:58:52;97075.63;;;19.38;88.46
10658;BME280;5377;43.276;26.930;2022-12-11T11:01:20;97066.81;;;19.32;89.07
10658;BME280;5377;43.276;26.930;2022-12-11T11:03:55;97058.00;;;19.26;91.68
10658;BME280;5377;43.276;26.930;2022-12-11T11:06:24;97052.34;;;19.14;92.85
10658;BME280;5377;43.276;26.930;2022-12-11T11:08:54;97056.03;;;19.18;93.19
10658;BME280;5377;43.276;26.930;2022-12-11T11:11:25;97062.81;;;19.29;93.72
10658;BME280;5377;43.276;26.930;2022-12-11T11:14:04;97042.72;;;19.08;94.99
10658;BME280;5377;43.276;26.930;2022-12-11T11:16:34;97084.28;;;19.17;95.86
10658;BME280;5377;43.276;26.930;2022-12-11T11:19:02;97100.19;;;19.10;96.20
10658;BME280;5377;43.276;26.930;2022-12-11T11:21:29;97086.00;;;19.13;96.14
10658;BME280;5377;43.276;26.930;2022-12-11T11:23:58;97075.88;;;19.05;97.00
10658;BME280;5377;43.276;26.930;2022-12-11T11:26:25;96949.78;;;18.22;97.26
10658;BME280;5377;43.276;26.930;2022-12-11T11:28:54;97074.50;;;18.94;98.85
10658;BME280;5377;43.276;26.930;2022-12-11T11:34:46;97086.59;;;18.88;99.35
10658;BME280;5377;43.276;26.930;2022-12-11T11:37:29;97065.88;;;18.92;99.90
10658;BME280;5377;43.276;26.930;2022-12-11T11:40:02;97085.06;;;18.95;100.00
10658;BME280;5377;43.276;26.930;2022-12-11T11:42:39;97054.78;;;18.80;100.00
10658;BME280;5377;43.276;26.930;2022-12-11T11:45:11;97058.84;;;18.91;100.00
10658;BME280;5377;43.276;26.930;2022-12-11T11:48:09;97049.47;;;18.97;100.00
10658;BME280;5377;43.276;26.930;2022-12-11T11:50:40;97052.88;;;19.02;100.00
10658;BME280;5377;43.276;26.930;2022-12-11T11:53:13;97042.09;;;19.11;100.00
10658;BME280;5377;43.276;26.930;2022-12-11T11:55:50;97043.41;;;19.14;100.00
10658;BME280;5377;43.276;26.930;2022-12-11T11:58:22;97052.75;;;19.08;100.00
10658;BME280;5377;43.276;26.930;2022-12-11T12:00:52;97052.69;;;19.21;100.00
10658;BME280;5377;43.276;26.930;2022-12-11T12:03:20;96923.31;;;18.19;100.00
10658;BME280;5377;43.276;26.930;2022-12-11T12:05:52;97057.31;;;18.98;100.00
10658;BME280;5377;43.276;26.930;2022-12-11T12:08:31;97019.13;;;18.73;100.00
10658;BME280;5377;43.276;26.930;2022-12-11T12:11:06;97071.13;;;18.88;100.00
10658;BME280;5377;43.276;26.930;2022-12-11T12:13:42;97060.47;;;18.92;100.00
10658;BME280;5377;43.276;26.930;2022-12-11T12:16:21;97033.22;;;18.75;100.00
10658;BME280;5377;43.276;26.930;2022-12-11T12:18:57;97053.44;;;18.91;100.00
10658;BME280;5377;43.276;26.930;2022-12-11T12:22:36;97054.91;;;18.75;100.00
10658;BME280;5377;43.276;26.930;2022-12-11T12:25:15;96984.41;;;18.25;100.00
10658;BME280;5377;43.276;26.930;2022-12-11T12:27:54;97080.00;;;18.80;100.00
10658;BME280;5377;43.276;26.930;2022-12-11T12:30:26;97055.66;;;18.89;99.26
10658;BME280;5377;43.276;26.930;2022-12-11T12:33:36;97056.09;;;18.82;99.44
10658;BME280;5377;43.276;26.930;2022-12-11T12:36:15;97056.09;;;18.82;98.49
10658;BME280;5377;43.276;26.930;2022-12-11T12:38:51;97057.50;;;18.80;99.40
10658;BME280;5377;43.276;26.930;2022-12-11T12:41:21;97043.66;;;18.67;98.22
10658;BME280;5377;43.276;26.930;2022-12-11T12:44:25;97063.94;;;18.56;97.33
10658;BME280;5377;43.276;26.930;2022-12-11T12:47:02;97053.53;;;18.50;98.54
10658;BME280;5377;43.276;26.930;2022-12-11T12:49:37;97042.06;;;18.66;98.95
10658;BME280;5377;43.276;26.930;2022-12-11T12:52:11;97069.56;;;18.60;99.01
10658;BME280;5377;43.276;26.930;2022-12-11T12:54:40;97050.88;;;18.58;99.02
10658;BME280;5377;43.276;26.930;2022-12-11T12:57:28;97059.75;;;18.50;99.00
10658;BME280;5377;43.276;26.930;2022-12-11T12:59:57;97050.28;;;18.61;98.04
10658;BME280;5377;43.276;26.930;2022-12-11T13:02:25;97018.47;;;18.53;98.75
10658;BME280;5377;43.276;26.930;2022-12-11T13:04:57;97062.44;;;18.64;99.41
10658;BME280;5377;43.276;26.930;2022-12-11T13:07:27;97043.47;;;18.64;99.64
10658;BME280;5377;43.276;26.930;2022-12-11T13:09:57;97059.50;;;18.60;100.00
10658;BME280;5377;43.276;26.930;2022-12-11T13:15:52;97052.22;;;18.47;100.00
10658;BME280;5377;43.276;26.930;2022-12-11T13:18:31;97055.00;;;18.56;100.00
10658;BME280;5377;43.276;26.930;2022-12-11T13:20:59;97049.69;;;18.51;100.00
10658;BME280;5377;43.276;26.930;2022-12-11T13:23:28;97046.63;;;18.44;99.63
10658;BME280;5377;43.276;26.930;2022-12-11T13:25:56;97034.56;;;18.50;99.56
10658;BME280;5377;43.276;26.930;2022-12-11T13:28:31;97032.44;;;18.47;99.82
10658;BME280;5377;43.276;26.930;2022-12-11T13:31:31;97028.63;;;18.48;99.90
10658;BME280;5377;43.276;26.930;2022-12-11T13:37:25;97036.69;;;18.39;100.00
10658;BME280;5377;43.276;26.930;2022-12-11T13:43:17;97006.63;;;18.13;100.00
10658;BME280;5377;43.276;26.930;2022-12-11T13:49:26;97047.34;;;18.22;100.00
10658;BME280;5377;43.276;26.930;2022-12-11T13:51:56;97046.22;;;18.23;100.00
10658;BME280;5377;43.276;26.930;2022-12-11T13:54:25;97032.69;;;18.23;100.00
10658;BME280;5377;43.276;26.930;2022-12-11T13:56:54;97054.44;;;18.31;100.00
10658;BME280;5377;43.276;26.930;2022-12-11T13:59:25;97061.19;;;18.20;100.00
10658;BME280;5377;43.276;26.930;2022-12-11T14:01:54;97053.97;;;18.16;100.00
10658;BME280;5377;43.276;26.930;2022-12-11T14:04:24;97052.28;;;18.06;100.00
10658;BME280;5377;43.276;26.930;2022-12-11T14:06:53;97078.06;;;18.17;100.00
10658;BME280;5377;43.276;26.930;2022-12-11T14:09:22;97086.09;;;18.08;100.00
10658;BME280;5377;43.276;26.930;2022-12-11T14:11:51;97077.97;;;18.08;100.00
10658;BME280;5377;43.276;26.930;2022-12-11T14:14:26;97077.53;;;18.01;100.00
10658;BME280;5377;43.276;26.930;2022-12-11T14:20:23;97101.72;;;17.84;100.00
10658;BME280;5377;43.276;26.930;2022-12-11T14:22:51;97004.94;;;17.30;100.00
10658;BME280;5377;43.276;26.930;2022-12-11T14:25:20;97040.00;;;17.21;100.00
10658;BME280;5377;43.276;26.930;2022-12-11T14:27:49;97090.56;;;17.72;100.00
10658;BME280;5377;43.276;26.930;2022-12-11T14:30:22;97004.50;;;17.09;100.00
10658;BME280;5377;43.276;26.930;2022-12-11T14:32:50;97095.81;;;17.63;100.00
10658;BME280;5377;43.276;26.930;2022-12-11T14:35:24;97098.47;;;17.68;100.00
10658;BME280;5377;43.276;26.930;2022-12-11T14:37:52;97096.56;;;17.69;100.00
10658;BME280;5377;43.276;26.930;2022-12-11T14:40:23;97102.41;;;17.57;100.00
10658;BME280;5377;43.276;26.930;2022-12-11T14:42:54;97082.84;;;17.46;100.00
10658;BME280;5377;43.276;26.930;2022-12-11T14:45:29;97113.63;;;17.51;100.00
10658;BME280;5377;43.276;26.930;2022-12-11T14:47:58;97070.34;;;17.18;100.00
10658;BME280;5377;43.276;26.930;2022-12-11T14:50:31;97134.81;;;17.62;100.00
10658;BME280;5377;43.276;26.930;2022-12-11T14:53:06;97142.03;;;17.34;100.00
10658;BME280;5377;43.276;26.930;2022-12-11T14:55:37;97139.72;;;17.09;100.00
10658;BME280;5377;43.276;26.930;2022-12-11T14:58:16;97150.59;;;16.85;100.00
10658;BME280;5377;43.276;26.930;2022-12-11T15:01:21;97158.44;;;16.63;100.00
10658;BME280;5377;43.276;26.930;2022-12-11T15:27:58;97199.72;;;15.18;100.00
10658;BME280;5377;43.276;26.930;2022-12-11T15:34:20;97233.25;;;15.02;100.00
10658;BME280;5377;43.276;26.930;2022-12-11T15:47:20;97214.06;;;14.59;100.00
10658;BME280;5377;43.276;26.930;2022-12-11T15:53:17;97166.75;;;14.18;100.00
10658;BME280;5377;43.276;26.930;2022-12-11T15:59:24;97271.97;;;14.52;100.00
10658;BME280;5377;43.276;26.930;2022-12-11T16:26:10;97283.50;;;13.20;100.00
10658;BME280;5377;43.276;26.930;2022-12-11T16:39:28;97291.16;;;12.44;100.00
10658;BME280;5377;43.276;26.930;2022-12-11T17:16:18;97345.50;;;10.73;100.00
10658;BME280;5377;43.276;26.930;2022-12-11T18:25:21;97419.25;;;7.81;100.00
